Time;durP1;ratioP1;P1;durP2;ratioP2;P2;SDS_P1;SDS_P2;PMS_P1;PMS_P2;Temp;Humidity;BMP_temperature;BMP_pressure;BME280_temperature;BME280_humidity;BME280_pressure;Samples;Min_cycle;Max_cycle;Signal;HPM_P1;HPM_P2
2021/04/04 00:03:17;;;;;;;2.37;1.60;;;;;;;2.09;71.71;98997.85;3737971;79;44082;-25
2021/04/04 00:08:23;;;;;;;3.80;1.93;;;;;;;2.08;71.40;98992.15;3736460;78;44467;-25
2021/04/04 00:13:28;;;;;;;2.70;1.60;;;;;;;2.07;71.85;98994.42;3747764;78;44634;-25
2021/04/04 00:18:35;;;;;;;1.67;1.30;;;;;;;2.06;71.50;98994.04;3761073;79;44089;-25
2021/04/04 00:23:41;;;;;;;3.60;1.80;;;;;;;2.06;72.80;98991.88;3757838;79;43335;-25
2021/04/04 00:28:48;;;;;;;3.47;1.80;;;;;;;2.07;73.05;98993.59;3761201;79;44050;-25
2021/04/04 00:33:54;;;;;;;2.67;1.70;;;;;;;2.06;72.70;98986.06;3762780;79;43161;-25
2021/04/04 00:39:00;;;;;;;2.13;1.60;;;;;;;2.07;72.41;98989.11;3761038;77;44121;-25
2021/04/04 00:44:08;;;;;;;2.70;1.50;;;;;;;2.07;74.16;98983.80;3763406;77;43699;-25
2021/04/04 00:49:14;;;;;;;2.57;1.60;;;;;;;2.04;74.25;98984.00;3761145;79;43019;-25
2021/04/04 00:54:20;;;;;;;2.23;1.77;;;;;;;2.03;73.72;98982.75;3762709;79;44054;-25
2021/04/04 00:59:26;;;;;;;2.37;1.67;;;;;;;1.98;73.46;98985.23;3762362;79;43404;-25
2021/04/04 01:04:32;;;;;;;3.80;1.87;;;;;;;1.97;74.40;98978.66;3762488;79;44081;-25
2021/04/04 01:09:38;;;;;;;3.43;1.70;;;;;;;1.84;73.93;98985.20;3761215;78;42835;-25
2021/04/04 01:14:47;;;;;;;3.33;1.80;;;;;;;1.82;73.83;98975.13;3747378;78;43020;-25
2021/04/04 01:20:14;;;;;;;4.87;1.80;;;;;;;1.78;74.29;98978.45;3736330;78;44030;-25
2021/04/04 01:25:24;;;;;;;3.20;1.60;;;;;;;1.76;74.61;98978.17;3735204;79;43705;-25
2021/04/04 01:30:33;;;;;;;2.17;1.50;;;;;;;1.68;75.40;98971.98;3738082;79;44007;-25
2021/04/04 01:35:42;;;;;;;2.53;1.93;;;;;;;1.61;75.53;98974.60;3738847;79;44227;-24
2021/04/04 01:40:50;;;;;;;1.97;1.60;;;;;;;1.53;76.22;98976.38;3730752;78;43412;-24
2021/04/04 01:45:57;;;;;;;3.30;1.60;;;;;;;1.45;76.52;98972.87;3737404;78;44219;-25
2021/04/04 01:51:04;;;;;;;2.17;1.50;;;;;;;1.34;77.56;98971.32;3737612;78;43713;-25
2021/04/04 01:56:10;;;;;;;4.20;1.90;;;;;;;1.19;77.96;98968.59;3737344;78;44011;-25
2021/04/04 02:01:17;;;;;;;4.40;1.70;;;;;;;1.14;77.40;98960.52;3736056;78;43549;-25
2021/04/04 02:06:23;;;;;;;3.03;1.80;;;;;;;1.10;77.33;98966.94;3732787;78;43712;-25
2021/04/04 02:11:33;;;;;;;3.50;1.97;;;;;;;1.06;77.27;98966.26;3735675;78;44494;-25
2021/04/04 02:16:41;;;;;;;3.60;2.00;;;;;;;1.04;77.84;98963.70;3757535;77;43460;-25
2021/04/04 02:21:50;;;;;;;4.77;2.03;;;;;;;0.99;78.49;98960.93;3759985;77;43309;-25
2021/04/04 02:26:56;;;;;;;4.37;1.97;;;;;;;0.91;78.54;98958.70;3761687;77;44017;-25
2021/04/04 02:32:05;;;;;;;2.67;1.67;;;;;;;0.84;78.32;98954.22;3759312;77;43397;-25
2021/04/04 02:37:13;;;;;;;3.60;1.70;;;;;;;0.73;78.96;98952.16;3762006;77;43700;-25
2021/04/04 02:42:22;;;;;;;2.50;1.80;;;;;;;0.66;80.67;98954.78;3760018;77;43519;-25
2021/04/04 02:47:32;;;;;;;3.80;1.87;;;;;;;0.56;81.17;98957.56;3762074;79;43697;-25
2021/04/04 02:52:41;;;;;;;3.13;1.87;;;;;;;0.49;81.50;98954.39;3761162;79;43270;-25
2021/04/04 02:57:48;;;;;;;3.10;2.00;;;;;;;0.40;82.55;98957.06;3762139;79;43762;-24
2021/04/04 03:02:56;;;;;;;3.70;2.00;;;;;;;0.25;85.12;98961.41;3762665;77;44105;-25
2021/04/04 03:08:05;;;;;;;3.30;2.03;;;;;;;0.12;88.17;98953.73;3761886;79;43681;-25
2021/04/04 03:13:11;;;;;;;3.60;2.30;;;;;;;-0.01;87.96;98950.41;3761390;78;43780;-25
2021/04/04 03:18:18;;;;;;;3.67;2.00;;;;;;;0.23;85.74;98953.16;3746913;78;44388;-25
2021/04/04 03:23:26;;;;;;;3.50;1.93;;;;;;;0.15;86.48;98941.16;3737937;79;43410;-25
2021/04/04 03:28:32;;;;;;;4.07;1.83;;;;;;;-0.02;88.97;98950.50;3736292;79;43430;-25
2021/04/04 03:33:39;;;;;;;4.60;2.07;;;;;;;-0.14;90.00;98942.72;3737687;78;43337;-25
2021/04/04 03:38:46;;;;;;;2.70;1.80;;;;;;;-0.29;93.13;98944.86;3728920;78;43967;-24
2021/04/04 03:43:52;;;;;;;4.83;2.00;;;;;;;-0.40;94.81;98950.70;3737438;79;43442;-25
2021/04/04 03:49:01;;;;;;;3.30;2.20;;;;;;;-0.45;94.29;98948.30;3737620;79;44030;-24
2021/04/04 03:54:08;;;;;;;6.13;2.20;;;;;;;-0.47;93.73;98944.86;3737814;79;43476;-25
2021/04/04 03:59:15;;;;;;;5.27;2.10;;;;;;;-0.51;94.02;98948.59;3736542;79;44834;-25
2021/04/04 04:04:22;;;;;;;3.00;2.00;;;;;;;-0.50;94.22;98943.23;3724343;79;44677;-25
2021/04/04 04:09:29;;;;;;;4.73;2.23;;;;;;;-0.52;95.05;98940.26;3727563;78;43974;-23
2021/04/04 04:14:37;;;;;;;4.20;2.10;;;;;;;-0.50;95.64;98927.80;3727736;77;43487;-23
2021/04/04 04:19:43;;;;;;;3.73;1.93;;;;;;;-0.49;95.32;98916.28;3724816;79;44551;-23
2021/04/04 04:24:51;;;;;;;3.53;2.20;;;;;;;-0.48;94.56;98927.27;3721257;79;44094;-23
2021/04/04 04:29:59;;;;;;;4.73;2.37;;;;;;;-0.50;94.24;98916.77;3721409;79;43974;-22
2021/04/04 04:35:08;;;;;;;2.90;2.00;;;;;;;-0.53;93.85;98910.78;3722275;79;43387;-23
2021/04/04 04:40:16;;;;;;;3.03;1.77;;;;;;;-0.62;94.34;98910.30;3727768;79;44011;-22
2021/04/04 04:45:25;;;;;;;5.17;1.97;;;;;;;-0.70;94.35;98914.27;3729602;78;43979;-22
2021/04/04 04:50:31;;;;;;;3.43;2.10;;;;;;;-0.75;94.09;98904.39;3736591;78;44504;-22
2021/04/04 04:55:39;;;;;;;4.43;2.50;;;;;;;-0.83;95.85;98906.10;3737393;79;44052;-22
2021/04/04 05:00:45;;;;;;;3.50;2.03;;;;;;;-0.83;95.70;98903.45;3737103;79;43468;-23
2021/04/04 05:05:51;;;;;;;4.03;2.30;;;;;;;-0.85;95.99;98898.25;3736412;79;43477;-22
2021/04/04 05:11:03;;;;;;;2.80;2.00;;;;;;;-0.89;97.16;98901.98;3736466;79;42811;-22
2021/04/04 05:16:13;;;;;;;4.53;2.47;;;;;;;-0.89;98.17;98907.75;3737300;79;44031;-22
2021/04/04 05:21:24;;;;;;;3.10;1.83;;;;;;;-0.88;97.46;98909.47;3736844;78;43180;-22
2021/04/04 05:26:32;;;;;;;7.20;3.13;;;;;;;-0.89;97.54;98904.63;3736471;78;43986;-22
2021/04/04 05:31:47;;;;;;;4.20;2.20;;;;;;;-0.85;100.00;98917.22;3735755;79;44027;-22
2021/04/04 05:36:54;;;;;;;5.60;2.40;;;;;;;-0.84;100.00;98913.20;3732312;79;44568;-22
2021/04/04 05:42:02;;;;;;;4.50;2.27;;;;;;;-0.79;100.00;98912.48;3736045;78;43714;-22
2021/04/04 05:47:13;;;;;;;4.93;2.07;;;;;;;-0.71;100.00;98925.81;3736964;79;43694;-22
2021/04/04 05:52:35;;;;;;;5.40;3.40;;;;;;;-0.64;100.00;98926.72;3706434;78;43714;-23
2021/04/04 05:57:46;;;;;;;4.70;2.40;;;;;;;-0.23;100.00;98925.51;3734689;78;42934;-23
2021/04/04 06:03:06;;;;;;;4.17;2.30;;;;;;;-0.33;100.00;98930.45;3736772;78;43444;-21
2021/04/04 06:08:50;;;;;;;4.93;2.30;;;;;;;-0.28;100.00;98932.86;3736343;79;43677;-23
2021/04/04 06:14:03;;;;;;;3.33;2.20;;;;;;;-0.21;100.00;98932.91;3736908;79;43357;-23
2021/04/04 06:19:20;;;;;;;6.73;3.40;;;;;;;-0.08;100.00;98943.73;3756445;78;44077;-23
2021/04/04 06:24:31;;;;;;;5.53;2.90;;;;;;;0.09;100.00;98946.81;3759566;79;44046;-23
2021/04/04 06:29:45;;;;;;;4.70;2.73;;;;;;;0.26;100.00;98944.58;3762456;77;43170;-23
2021/04/04 06:34:54;;;;;;;4.80;2.60;;;;;;;0.38;100.00;98936.89;3758633;77;44434;-21
2021/04/04 06:40:05;;;;;;;3.90;2.67;;;;;;;0.50;100.00;98947.27;3761388;78;43385;-24
2021/04/04 06:45:18;;;;;;;7.07;3.20;;;;;;;0.67;100.00;98951.19;3758152;77;44432;-24
2021/04/04 06:50:25;;;;;;;4.53;2.87;;;;;;;0.82;98.32;98946.81;3760208;79;43424;-22
2021/04/04 06:55:42;;;;;;;3.70;2.60;;;;;;;1.10;94.58;98941.72;3761263;79;43750;-22
2021/04/04 07:00:53;;;;;;;3.03;2.70;;;;;;;1.35;91.13;98947.81;3755668;79;43689;-22
2021/04/04 07:06:02;;;;;;;7.00;3.20;;;;;;;1.58;88.79;98946.44;3760227;77;43690;-23
2021/04/04 07:11:20;;;;;;;5.37;2.23;;;;;;;1.84;88.24;98945.34;3759953;77;44838;-23
2021/04/04 07:17:17;;;;;;;5.17;2.60;;;;;;;2.04;82.20;98938.82;3751898;79;43677;-22
2021/04/04 07:22:37;;;;;;;3.43;2.50;;;;;;;2.33;80.44;98932.64;3730372;79;43603;-24
2021/04/04 07:28:20;;;;;;;4.27;3.00;;;;;;;2.61;80.00;98937.06;3732747;79;44534;-24
2021/04/04 07:33:38;;;;;;;5.50;2.80;;;;;;;2.76;76.84;98937.88;3717797;79;43717;-22
2021/04/04 07:38:56;;;;;;;5.40;2.87;;;;;;;2.95;75.58;98934.87;3731553;78;44052;-22
2021/04/04 07:44:07;;;;;;;5.60;3.30;;;;;;;3.01;77.60;98931.80;3730384;78;43986;-22
2021/04/04 07:49:26;;;;;;;6.83;3.20;;;;;;;3.29;77.56;98933.98;3727635;78;43326;-22
2021/04/04 07:54:36;;;;;;;6.33;3.23;;;;;;;3.48;76.57;98927.41;3729359;79;44070;-23
2021/04/04 07:59:46;;;;;;;4.70;2.70;;;;;;;3.75;76.00;98933.15;3727436;79;43684;-23
2021/04/04 08:04:53;;;;;;;5.50;2.60;;;;;;;4.05;74.33;98944.00;3730807;79;44033;-22
2021/04/04 08:10:03;;;;;;;4.80;2.60;;;;;;;4.23;72.85;98932.03;3731060;78;43400;-24
2021/04/04 08:15:14;;;;;;;4.30;2.97;;;;;;;4.60;72.91;98929.41;3730084;78;43574;-23
2021/04/04 08:20:24;;;;;;;4.10;2.60;;;;;;;4.68;72.77;98933.33;3753389;77;43701;-25
2021/04/04 08:25:41;;;;;;;4.50;3.00;;;;;;;4.90;68.58;98932.63;3756443;78;44010;-22
2021/04/04 08:30:50;;;;;;;6.27;3.17;;;;;;;5.23;68.41;98923.91;3755712;79;44042;-23
2021/04/04 08:35:59;;;;;;;5.70;2.70;;;;;;;5.55;67.35;98917.97;3756871;79;43354;-23
2021/04/04 08:41:07;;;;;;;6.17;2.80;;;;;;;5.63;63.89;98918.73;3756925;78;43403;-23
2021/04/04 08:46:21;;;;;;;6.70;4.13;;;;;;;5.73;64.49;98916.18;3755653;77;43676;-24
2021/04/04 08:51:29;;;;;;;6.53;3.20;;;;;;;6.10;64.96;98907.16;3752609;77;44090;-23
2021/04/04 08:56:35;;;;;;;5.12;3.33;;;;;;;6.12;66.36;98910.08;3758092;79;43712;-23
2021/04/04 09:01:43;;;;;;;5.50;3.15;;;;;;;6.32;64.53;98900.95;3761316;78;44233;-23
2021/04/04 09:06:52;;;;;;;7.17;3.52;;;;;;;6.31;66.05;98897.91;3760842;79;43709;-23
2021/04/04 09:12:00;;;;;;;8.15;4.00;;;;;;;6.50;63.62;98896.45;3760270;79;43415;-23
2021/04/04 09:17:10;;;;;;;10.85;3.90;;;;;;;6.69;67.41;98887.27;3761394;78;43959;-20
2021/04/04 09:22:18;;;;;;;10.95;4.47;;;;;;;7.01;67.10;98886.45;3763384;77;43708;-20
2021/04/04 09:27:26;;;;;;;7.50;4.45;;;;;;;7.14;63.66;98877.39;3755060;77;69213;-23
2021/04/04 09:32:38;;;;;;;11.85;5.30;;;;;;;7.37;66.40;98879.49;3761289;79;43382;-23
2021/04/04 09:37:45;;;;;;;9.73;5.30;;;;;;;7.65;66.79;98873.11;3759104;77;43479;-24
2021/04/04 09:42:51;;;;;;;10.82;6.00;;;;;;;7.64;65.19;98881.66;3760346;79;43686;-22
2021/04/04 09:47:57;;;;;;;10.10;6.15;;;;;;;7.48;67.54;98888.82;3760900;79;44467;-24
2021/04/04 09:53:04;;;;;;;10.63;6.72;;;;;;;7.37;68.14;98873.63;3758124;79;44451;-23
2021/04/04 09:58:11;;;;;;;14.33;7.05;;;;;;;7.75;67.12;98866.47;3761387;77;44128;-23
2021/04/04 10:03:19;;;;;;;14.75;8.35;;;;;;;7.97;68.87;98866.30;3761187;77;43686;-23
2021/04/04 10:08:26;;;;;;;17.48;8.60;;;;;;;7.75;70.72;98866.47;3759336;79;43997;-22
2021/04/04 10:13:33;;;;;;;16.95;8.85;;;;;;;7.50;72.17;98854.69;3758770;79;44078;-22
2021/04/04 10:18:41;;;;;;;15.80;9.60;;;;;;;7.96;72.25;98860.58;3748303;79;44093;-22
2021/04/04 10:23:50;;;;;;;18.32;11.05;;;;;;;7.77;72.51;98845.23;3734453;79;44084;-23
2021/04/04 10:29:01;;;;;;;20.70;10.25;;;;;;;7.60;76.59;98850.70;3737147;79;43423;-22
2021/04/04 10:34:07;;;;;;;19.50;10.10;;;;;;;7.77;78.27;98847.08;3736162;78;44082;-22
2021/04/04 10:39:22;;;;;;;18.23;9.43;;;;;;;7.64;75.03;98837.41;3732102;78;43333;-23
2021/04/04 10:44:28;;;;;;;24.80;9.98;;;;;;;7.48;73.82;98834.33;3733909;78;43418;-23
2021/04/04 10:49:34;;;;;;;16.45;8.98;;;;;;;7.75;74.32;98835.16;3729453;78;44079;-23
2021/04/04 10:54:42;;;;;;;17.87;8.73;;;;;;;7.55;72.25;98815.41;3727933;78;43669;-23
2021/04/04 10:59:48;;;;;;;15.65;9.05;;;;;;;7.91;73.88;98811.86;3732115;79;43028;-24
2021/04/04 11:04:56;;;;;;;15.90;8.55;;;;;;;8.17;70.90;98796.13;3713906;78;44116;-24
2021/04/04 11:10:04;;;;;;;20.30;8.45;;;;;;;8.13;69.11;98798.72;3727728;78;43335;-22
2021/04/04 11:15:15;;;;;;;18.07;7.85;;;;;;;7.98;72.17;98794.22;3715995;79;44336;-23
2021/04/04 11:20:22;;;;;;;14.75;8.15;;;;;;;7.76;70.72;98786.37;3730725;78;43705;-22
2021/04/04 11:25:31;;;;;;;17.10;8.43;;;;;;;7.80;70.89;98774.40;3732668;79;43669;-21
2021/04/04 11:30:41;;;;;;;13.72;7.55;;;;;;;8.07;71.15;98771.58;3735837;79;43440;-21
2021/04/04 11:36:00;;;;;;;16.55;8.53;;;;;;;7.98;67.06;98771.92;3735476;79;43456;-21
2021/04/04 11:41:18;;;;;;;12.78;8.00;;;;;;;8.09;67.45;98770.95;3728732;78;44554;-23
2021/04/04 11:46:45;;;;;;;15.72;7.75;;;;;;;8.44;68.73;98758.87;3722712;78;43676;-23
2021/04/04 11:51:52;;;;;;;18.55;7.42;;;;;;;8.21;64.39;98758.28;3724911;78;44015;-23
2021/04/04 11:57:00;;;;;;;15.63;7.30;;;;;;;8.17;64.10;98753.69;3730644;79;44557;-22
2021/04/04 12:02:06;;;;;;;12.73;6.40;;;;;;;8.39;63.96;98747.21;3733251;79;75356;-21
2021/04/04 12:07:13;;;;;;;10.78;5.95;;;;;;;8.10;63.01;98754.73;3737926;79;43478;-22
2021/04/04 12:12:19;;;;;;;16.25;6.62;;;;;;;8.20;65.55;98752.05;3737370;79;43355;-22
2021/04/04 12:17:26;;;;;;;13.08;6.35;;;;;;;8.43;63.30;98742.41;3737281;78;43429;-22
2021/04/04 12:22:38;;;;;;;13.90;6.28;;;;;;;8.45;63.49;98722.98;3755198;77;44259;-22
2021/04/04 12:27:46;;;;;;;15.00;7.10;;;;;;;8.53;62.18;98720.98;3762200;77;44065;-22
2021/04/04 12:33:03;;;;;;;16.90;6.50;;;;;;;8.41;64.67;98710.84;3758254;79;43710;-22
2021/04/04 12:38:10;;;;;;;15.23;6.12;;;;;;;8.41;63.38;98714.36;3759917;79;43710;-23
2021/04/04 12:43:15;;;;;;;15.85;6.62;;;;;;;8.42;64.14;98701.30;3762918;77;43717;-23
2021/04/04 12:48:26;;;;;;;14.00;6.28;;;;;;;8.36;63.88;98707.72;3758292;77;44074;-23
2021/04/04 12:53:33;;;;;;;14.13;6.40;;;;;;;8.60;62.72;98692.08;3762285;77;44054;-21
2021/04/04 12:58:41;;;;;;;12.90;5.60;;;;;;;8.62;62.85;98675.80;3757567;79;43686;-23
2021/04/04 13:03:47;;;;;;;19.48;7.17;;;;;;;8.64;62.41;98677.35;3762197;79;44058;-23
2021/04/04 13:08:54;;;;;;;13.45;5.80;;;;;;;8.80;61.73;98685.33;3756541;79;43509;-23
2021/04/04 13:14:00;;;;;;;13.38;5.95;;;;;;;8.57;60.88;98670.86;3762768;77;44444;-23
2021/04/04 13:19:06;;;;;;;13.18;6.12;;;;;;;8.97;60.86;98670.31;3761691;78;43673;-26
2021/04/04 13:24:17;;;;;;;11.40;6.12;;;;;;;9.01;59.51;98664.14;3743036;78;43509;-24
2021/04/04 13:29:23;;;;;;;13.95;6.03;;;;;;;8.93;60.58;98667.07;3737659;78;43342;-24
2021/04/04 13:34:38;;;;;;;14.18;6.17;;;;;;;8.90;60.97;98644.52;3737944;78;43399;-24
2021/04/04 13:39:44;;;;;;;11.97;5.72;;;;;;;8.64;60.69;98634.38;3737981;78;44010;-24
2021/04/04 13:44:50;;;;;;;17.77;6.05;;;;;;;8.71;59.50;98633.30;3737762;79;43305;-24
2021/04/04 13:49:56;;;;;;;13.28;6.17;;;;;;;8.90;60.02;98628.90;3735967;79;43408;-24
2021/04/04 13:55:04;;;;;;;11.65;5.95;;;;;;;9.11;59.40;98635.42;3737275;79;44085;-24
2021/04/04 14:00:13;;;;;;;12.47;6.08;;;;;;;8.94;58.60;98619.05;3734217;78;43377;-24
2021/04/04 14:05:27;;;;;;;15.48;7.22;;;;;;;8.72;58.11;98604.11;3750896;76;43415;-24
2021/04/04 14:10:33;;;;;;;11.40;5.92;;;;;;;9.31;58.79;98594.50;3756992;78;43427;-24
2021/04/04 14:15:39;;;;;;;13.30;5.75;;;;;;;9.24;59.16;98590.22;3752768;78;43686;-24
2021/04/04 14:20:45;;;;;;;11.95;5.67;;;;;;;9.24;58.45;98590.22;3753391;78;43664;-24
2021/04/04 14:25:51;;;;;;;15.32;6.92;;;;;;;9.43;55.58;98591.61;3752211;78;44167;-24
2021/04/04 14:30:57;;;;;;;11.28;5.92;;;;;;;9.60;56.63;98571.13;3751844;78;44871;-24
2021/04/04 14:36:06;;;;;;;14.75;5.70;;;;;;;9.66;55.78;98566.50;3754267;76;44653;-24
2021/04/04 14:41:12;;;;;;;13.10;5.83;;;;;;;9.27;55.19;98553.28;3749428;76;43971;-24
2021/04/04 14:46:18;;;;;;;11.22;5.20;;;;;;;9.50;55.13;98548.34;3749682;78;43684;-25
2021/04/04 14:51:25;;;;;;;9.50;5.50;;;;;;;9.64;54.72;98530.83;3750159;78;43013;-25
2021/04/04 14:56:35;;;;;;;13.28;5.87;;;;;;;9.57;54.85;98507.73;3745807;78;43445;-24
2021/04/04 15:01:42;;;;;;;10.18;5.67;;;;;;;9.43;55.11;98514.48;3747229;78;44158;-25
2021/04/04 15:06:50;;;;;;;12.18;5.45;;;;;;;9.71;53.94;98511.24;3742980;78;44085;-25
2021/04/04 15:11:56;;;;;;;10.80;5.05;;;;;;;9.45;52.31;98521.05;3793280;76;43673;-25
2021/04/04 15:17:04;;;;;;;14.50;5.20;;;;;;;9.28;53.64;98494.00;3750430;76;43460;-25
2021/04/04 15:22:11;;;;;;;9.33;4.75;;;;;;;9.78;51.49;98487.26;3766081;77;43410;-25
2021/04/04 15:27:16;;;;;;;9.23;4.75;;;;;;;9.99;50.73;98487.42;3764136;78;43416;-25
2021/04/04 15:32:22;;;;;;;13.53;4.90;;;;;;;10.20;51.46;98468.72;3762412;78;43490;-25
2021/04/04 15:37:29;;;;;;;10.32;5.00;;;;;;;9.60;50.43;98485.05;3770683;78;43323;-26
2021/04/04 15:42:36;;;;;;;10.32;4.90;;;;;;;9.65;52.30;98466.63;3763577;76;44058;-25
2021/04/04 15:47:48;;;;;;;10.13;4.45;;;;;;;9.66;50.91;98455.70;3770195;76;43340;-25
2021/04/04 15:52:54;;;;;;;11.10;4.58;;;;;;;9.95;50.69;98445.18;3773582;76;44013;-25
2021/04/04 15:58:01;;;;;;;12.50;5.00;;;;;;;9.65;49.53;98441.90;3770740;78;44467;-25
2021/04/04 16:03:08;;;;;;;9.88;4.62;;;;;;;9.86;50.49;98436.20;3778194;78;43994;-25
2021/04/04 16:08:13;;;;;;;9.10;4.37;;;;;;;9.75;51.60;98422.99;3768703;78;42931;-24
2021/04/04 16:13:22;;;;;;;9.73;4.17;;;;;;;10.07;50.94;98422.87;3766176;78;43971;-25
2021/04/04 16:18:28;;;;;;;8.93;4.40;;;;;;;9.76;51.23;98416.61;3751514;77;43677;-24
2021/04/04 16:23:34;;;;;;;9.08;4.50;;;;;;;9.61;50.24;98408.74;3759556;76;44047;-24
2021/04/04 16:28:41;;;;;;;11.33;5.03;;;;;;;9.24;51.23;98398.00;3758477;76;43394;-27
2021/04/04 16:33:48;;;;;;;10.82;4.42;;;;;;;9.36;51.07;98397.77;3763646;77;43373;-24
2021/04/04 16:38:55;;;;;;;9.10;4.67;;;;;;;9.20;51.88;98405.19;3760515;77;43500;-25
2021/04/04 16:44:01;;;;;;;11.20;4.78;;;;;;;8.96;53.14;98391.02;3760906;77;44471;-25
2021/04/04 16:49:07;;;;;;;11.83;4.75;;;;;;;8.93;53.22;98388.97;3758570;77;44023;-24
2021/04/04 16:54:14;;;;;;;13.55;4.78;;;;;;;8.97;54.27;98381.44;3762246;76;43185;-25
2021/04/04 16:59:20;;;;;;;11.33;4.35;;;;;;;8.51;53.51;98376.08;3772963;76;44033;-25
2021/04/04 17:04:26;;;;;;;10.28;5.08;;;;;;;8.48;55.41;98373.69;3766841;76;43725;-24
2021/04/04 17:09:37;;;;;;;11.48;5.20;;;;;;;8.11;55.02;98377.20;3798909;77;43678;-24
2021/04/04 17:14:41;;;;;;;12.13;5.00;;;;;;;7.93;56.60;98365.05;3761438;77;44023;-25
2021/04/04 17:19:47;;;;;;;9.85;4.92;;;;;;;7.82;57.27;98374.95;3768923;77;44065;-25
2021/04/04 17:24:54;;;;;;;13.60;5.20;;;;;;;7.65;59.39;98358.25;3748119;77;43349;-24
2021/04/04 17:30:00;;;;;;;9.45;5.40;;;;;;;7.47;60.74;98354.98;3745094;77;44376;-24
2021/04/04 17:35:08;;;;;;;11.70;5.25;;;;;;;7.27;61.67;98358.17;3753390;77;43471;-25
2021/04/04 17:40:17;;;;;;;10.13;4.78;;;;;;;7.12;62.85;98347.52;3747803;77;43999;-23
2021/04/04 17:45:24;;;;;;;13.40;5.42;;;;;;;6.92;64.58;98344.36;3753267;77;43256;-25
2021/04/04 17:50:30;;;;;;;13.80;4.90;;;;;;;6.66;66.57;98335.16;3749041;78;44027;-25
2021/04/04 17:55:37;;;;;;;10.15;5.40;;;;;;;6.42;67.78;98340.40;3754285;78;42837;-24
2021/04/04 18:00:43;;;;;;;11.97;5.60;;;;;;;6.28;68.84;98345.64;3744115;78;43459;-24
2021/04/04 18:05:51;;;;;;;13.83;6.12;;;;;;;6.22;68.96;98342.16;3758600;77;43393;-26
2021/04/04 18:10:59;;;;;;;14.28;5.87;;;;;;;6.01;70.19;98338.56;3757808;77;43323;-26
2021/04/04 18:16:07;;;;;;;12.00;5.87;;;;;;;5.93;70.60;98327.66;3744989;78;43703;-26
2021/04/04 18:21:15;;;;;;;11.73;5.57;;;;;;;5.81;71.34;98323.38;3748934;78;44081;-24
2021/04/04 18:26:21;;;;;;;10.10;5.37;;;;;;;5.76;71.46;98311.76;3751467;78;69090;-25
2021/04/04 18:31:27;;;;;;;11.67;5.27;;;;;;;5.67;71.90;98316.57;3743306;78;43689;-24
2021/04/04 18:36:33;;;;;;;13.90;6.10;;;;;;;5.57;72.58;98314.34;3745842;78;43105;-24
2021/04/04 18:41:40;;;;;;;10.53;5.73;;;;;;;5.48;73.20;98311.96;3744957;77;43720;-24
2021/04/04 18:46:46;;;;;;;14.18;6.20;;;;;;;5.46;73.18;98306.77;3736774;77;43714;-24
2021/04/04 18:51:52;;;;;;;13.57;5.80;;;;;;;5.35;73.88;98314.34;3744634;78;44033;-24
2021/04/04 18:56:58;;;;;;;10.23;5.30;;;;;;;5.35;73.88;98310.84;3738846;78;42985;-24
2021/04/04 19:02:06;;;;;;;15.67;7.40;;;;;;;5.30;74.03;98307.20;3680710;80;44178;-24
2021/04/04 19:07:12;;;;;;;17.10;7.20;;;;;;;5.20;74.91;98295.14;3665757;80;44250;-24
2021/04/04 19:12:18;;;;;;;12.88;6.37;;;;;;;5.16;74.81;98297.70;3698473;80;43693;-24
2021/04/04 19:17:24;;;;;;;14.23;6.87;;;;;;;5.08;74.80;98288.16;3691164;79;44038;-24
2021/04/04 19:22:30;;;;;;;15.43;8.00;;;;;;;4.99;75.37;98276.93;3762037;77;43709;-24
2021/04/04 19:27:35;;;;;;;17.37;8.03;;;;;;;4.87;76.31;98264.98;3697328;79;75586;-23
2021/04/04 19:32:41;;;;;;;16.27;7.17;;;;;;;4.82;76.61;98267.67;3766544;77;75685;-24
2021/04/04 19:37:48;;;;;;;15.47;7.73;;;;;;;4.74;77.15;98260.30;3774164;77;44476;-24
2021/04/04 19:42:54;;;;;;;16.70;8.33;;;;;;;4.68;77.25;98263.47;3699926;79;75265;-24
2021/04/04 19:48:00;;;;;;;16.73;7.73;;;;;;;4.60;77.83;98256.95;3777020;76;44073;-24
2021/04/04 19:53:06;;;;;;;18.17;7.40;;;;;;;4.48;79.11;98255.30;3772627;76;75324;-24
2021/04/04 19:58:13;;;;;;;15.63;7.97;;;;;;;4.43;80.28;98245.48;3785697;77;43701;-24
2021/04/04 20:03:18;;;;;;;17.60;8.50;;;;;;;4.41;80.31;98242.96;3774383;77;44053;-24
2021/04/04 20:08:24;;;;;;;16.77;7.60;;;;;;;4.38;80.69;98230.37;3774518;77;43766;-24
2021/04/04 20:13:30;;;;;;;16.27;7.00;;;;;;;4.27;81.30;98216.10;3693305;79;44508;-24
2021/04/04 20:18:37;;;;;;;13.20;6.83;;;;;;;4.15;82.59;98201.94;3692291;79;43519;-26
2021/04/04 20:23:43;;;;;;;22.30;10.00;;;;;;;3.96;85.08;98200.43;3685091;78;44049;-25
2021/04/04 20:28:49;;;;;;;31.43;21.33;;;;;;;3.79;85.37;98184.48;3653841;79;43653;-26
2021/04/04 20:34:01;;;;;;;34.43;23.00;;;;;;;3.63;87.16;98187.54;3646915;80;44066;-26
2021/04/04 20:39:07;;;;;;;33.53;21.43;;;;;;;3.43;89.37;98183.80;3644683;80;44113;-26
2021/04/04 20:44:15;;;;;;;31.80;17.70;;;;;;;3.35;89.18;98175.91;3643592;80;44046;-26
2021/04/04 20:49:22;;;;;;;26.33;15.47;;;;;;;3.34;88.53;98166.72;3643811;80;43708;-26
2021/04/04 20:54:27;;;;;;;22.33;12.33;;;;;;;3.28;88.78;98161.41;3639538;80;44152;-26
2021/04/04 20:59:33;;;;;;;18.50;9.50;;;;;;;3.21;89.82;98152.22;3673958;79;43355;-26
2021/04/04 21:04:39;;;;;;;18.93;10.73;;;;;;;3.09;90.50;98139.38;3656729;79;43673;-26
2021/04/04 21:09:45;;;;;;;22.73;11.27;;;;;;;3.01;90.79;98122.68;3666326;80;43702;-26
2021/04/04 21:14:51;;;;;;;19.33;10.77;;;;;;;2.89;93.37;98110.34;3641937;80;43697;-25
2021/04/04 21:19:57;;;;;;;18.40;10.17;;;;;;;2.80;95.40;98101.75;3653224;80;44060;-28
2021/04/04 21:25:03;;;;;;;16.23;8.97;;;;;;;2.72;97.04;98085.05;3662744;79;43337;-26
2021/04/04 21:30:13;;;;;;;19.47;9.67;;;;;;;2.71;95.02;98083.36;3674155;80;44445;-25
2021/04/04 21:35:19;;;;;;;18.70;9.40;;;;;;;2.59;96.47;98079.36;3681383;79;44039;-25
2021/04/04 21:40:25;;;;;;;17.13;9.40;;;;;;;2.48;98.13;98078.52;3674974;79;43715;-25
2021/04/04 21:45:31;;;;;;;19.80;9.17;;;;;;;2.40;99.46;98072.45;3747165;78;44038;-26
2021/04/04 21:50:37;;;;;;;19.07;9.77;;;;;;;2.40;100.00;98060.48;3753433;78;44054;-26
2021/04/04 21:55:43;;;;;;;18.67;9.93;;;;;;;2.37;99.85;98050.95;3670716;80;43353;-26
2021/04/04 22:00:49;;;;;;;18.40;9.70;;;;;;;2.28;100.00;98033.89;3669673;80;43326;-26
2021/04/04 22:05:55;;;;;;;14.80;8.37;;;;;;;2.21;100.00;98026.50;3744974;77;43346;-26
2021/04/04 22:11:01;;;;;;;16.13;8.90;;;;;;;2.24;100.00;98022.29;3751011;77;43728;-25
2021/04/04 22:16:11;;;;;;;13.30;8.07;;;;;;;2.15;100.00;98022.05;3661941;80;43685;-26
2021/04/04 22:21:15;;;;;;;16.20;8.20;;;;;;;2.09;100.00;97998.58;3671110;80;44232;-26
2021/04/04 22:26:21;;;;;;;18.17;9.20;;;;;;;1.97;100.00;97983.12;3660794;80;43417;-26
2021/04/04 22:31:29;;;;;;;14.07;8.20;;;;;;;1.90;100.00;97969.92;3646078;80;43360;-26
2021/04/04 22:36:35;;;;;;;19.83;8.30;;;;;;;1.82;100.00;97952.41;3646417;80;43720;-26
2021/04/04 22:41:42;;;;;;;19.33;8.40;;;;;;;1.77;100.00;97938.62;3648369;79;43704;-26
2021/04/04 22:46:48;;;;;;;19.67;8.03;;;;;;;1.62;100.00;97924.25;3654021;79;43750;-26
2021/04/04 22:51:58;;;;;;;16.30;8.10;;;;;;;1.57;100.00;97915.77;3665674;80;43216;-26
2021/04/04 22:57:05;;;;;;;15.83;8.37;;;;;;;1.47;100.00;97906.33;3654435;80;44031;-26
2021/04/04 23:02:11;;;;;;;18.43;7.80;;;;;;;1.41;100.00;97896.19;3656671;80;43639;-26
2021/04/04 23:07:17;;;;;;;17.20;8.10;;;;;;;1.34;100.00;97886.52;3659366;80;43717;-26
2021/04/04 23:12:25;;;;;;;17.03;8.43;;;;;;;1.29;100.00;97886.50;3661909;80;43443;-26
2021/04/04 23:17:30;;;;;;;15.80;7.83;;;;;;;1.15;100.00;97867.16;3650801;79;43305;-25
2021/04/04 23:22:36;;;;;;;14.90;7.63;;;;;;;1.16;100.00;97866.69;3647219;79;44120;-26
2021/04/04 23:27:43;;;;;;;15.13;7.87;;;;;;;1.13;100.00;97866.42;3656779;80;44032;-26
2021/04/04 23:32:50;;;;;;;17.30;7.43;;;;;;;1.14;100.00;97858.83;3749394;78;43705;-26
2021/04/04 23:37:55;;;;;;;18.27;7.80;;;;;;;1.12;100.00;97844.00;3676325;80;43418;-26
2021/04/04 23:43:02;;;;;;;19.93;7.97;;;;;;;1.12;100.00;97824.93;3750501;78;43682;-26
2021/04/04 23:48:10;;;;;;;17.90;7.67;;;;;;;1.11;100.00;97810.00;3669757;80;43381;-27
2021/04/04 23:53:15;;;;;;;24.77;8.40;;;;;;;1.10;100.00;97784.44;3748692;77;43701;-25
2021/04/04 23:58:21;;;;;;;20.63;8.17;;;;;;;1.19;100.00;97789.03;3749772;77;43681;-27
